sensor_id;sensor_type;location;lat;lon;timestamp;pressure;altitude;pressure_sealevel;temperature;humidity
65376;BME280;51976;47.332;9.404;2022-12-01T00:00:12;92934.22;;;18.34;40.50
65376;BME280;51976;47.332;9.404;2022-12-01T00:02:38;92937.63;;;18.31;40.67
65376;BME280;51976;47.332;9.404;2022-12-01T00:05:04;92938.06;;;18.33;40.67
65376;BME280;51976;47.332;9.404;2022-12-01T00:07:29;92932.16;;;18.31;40.64
65376;BME280;51976;47.332;9.404;2022-12-01T00:09:54;92935.69;;;18.32;40.80
65376;BME280;51976;47.332;9.404;2022-12-01T00:12:40;92923.63;;;18.33;40.82
65376;BME280;51976;47.332;9.404;2022-12-01T00:15:09;92927.94;;;18.34;40.69
65376;BME280;51976;47.332;9.404;2022-12-01T00:17:35;92933.41;;;18.34;40.44
65376;BME280;51976;47.332;9.404;2022-12-01T00:20:00;92929.44;;;18.31;40.63
65376;BME280;51976;47.332;9.404;2022-12-01T00:22:26;92933.75;;;18.32;40.72
65376;BME280;51976;47.332;9.404;2022-12-01T00:24:51;92930.69;;;18.34;40.61
65376;BME280;51976;47.332;9.404;2022-12-01T00:27:17;92931.03;;;18.32;40.68
65376;BME280;51976;47.332;9.404;2022-12-01T00:29:43;92926.34;;;18.33;40.62
65376;BME280;51976;47.332;9.404;2022-12-01T00:32:09;92929.06;;;18.33;40.64
65376;BME280;51976;47.332;9.404;2022-12-01T00:34:34;92933.41;;;18.34;40.44
65376;BME280;51976;47.332;9.404;2022-12-01T00:37:00;92932.16;;;18.31;40.53
65376;BME280;51976;47.332;9.404;2022-12-01T00:39:25;92929.44;;;18.31;40.60
65376;BME280;51976;47.332;9.404;2022-12-01T00:41:50;92931.34;;;18.31;40.52
65376;BME280;51976;47.332;9.404;2022-12-01T00:44:16;92924.41;;;18.33;40.53
65376;BME280;51976;47.332;9.404;2022-12-01T00:46:41;92920.78;;;18.29;40.40
65376;BME280;51976;47.332;9.404;2022-12-01T00:49:11;92931.69;;;18.29;40.62
65376;BME280;51976;47.332;9.404;2022-12-01T00:51:37;92932.50;;;18.30;40.82
65376;BME280;51976;47.332;9.404;2022-12-01T00:54:02;92929.44;;;18.31;40.52
65376;BME280;51976;47.332;9.404;2022-12-01T00:56:27;92930.09;;;18.28;40.71
65376;BME280;51976;47.332;9.404;2022-12-01T00:58:53;92932.50;;;18.30;40.68
65376;BME280;51976;47.332;9.404;2022-12-01T01:01:18;92937.94;;;18.30;40.70
65376;BME280;51976;47.332;9.404;2022-12-01T01:03:44;92932.50;;;18.30;40.60
65376;BME280;51976;47.332;9.404;2022-12-01T01:06:11;92940.19;;;18.27;40.51
65376;BME280;51976;47.332;9.404;2022-12-01T01:08:37;92941.00;;;18.28;40.56
65376;BME280;51976;47.332;9.404;2022-12-01T01:11:04;92935.53;;;18.28;40.45
65376;BME280;51976;47.332;9.404;2022-12-01T01:13:30;92944.06;;;18.26;40.36
65376;BME280;51976;47.332;9.404;2022-12-01T01:16:01;92936.34;;;18.29;40.24
65376;BME280;51976;47.332;9.404;2022-12-01T01:18:27;92946.47;;;18.28;40.40
65376;BME280;51976;47.332;9.404;2022-12-01T01:20:57;92938.28;;;18.28;40.31
65376;BME280;51976;47.332;9.404;2022-12-01T01:23:22;92940.19;;;18.27;40.33
65376;BME280;51976;47.332;9.404;2022-12-01T01:25:48;92944.53;;;18.29;40.23
65376;BME280;51976;47.332;9.404;2022-12-01T01:28:13;92936.34;;;18.29;40.16
65376;BME280;51976;47.332;9.404;2022-12-01T01:30:39;92938.59;;;18.26;40.48
65376;BME280;51976;47.332;9.404;2022-12-01T01:33:04;92942.94;;;18.27;40.52
65376;BME280;51976;47.332;9.404;2022-12-01T01:35:29;92944.84;;;18.27;40.42
65376;BME280;51976;47.332;9.404;2022-12-01T01:37:55;92942.94;;;18.27;40.18
65376;BME280;51976;47.332;9.404;2022-12-01T01:40:21;92942.94;;;18.27;40.27
65376;BME280;51976;47.332;9.404;2022-12-01T01:42:46;92944.84;;;18.27;40.36
65376;BME280;51976;47.332;9.404;2022-12-01T01:45:19;92942.59;;;18.29;40.55
65376;BME280;51976;47.332;9.404;2022-12-01T01:47:48;92939.06;;;18.29;40.31
65376;BME280;51976;47.332;9.404;2022-12-01T01:50:15;92939.41;;;18.27;40.53
65376;BME280;51976;47.332;9.404;2022-12-01T01:52:46;92945.97;;;18.26;40.10
65376;BME280;51976;47.332;9.404;2022-12-01T01:55:15;92938.59;;;18.26;40.37
65376;BME280;51976;47.332;9.404;2022-12-01T01:57:41;92941.00;;;18.28;40.53
65376;BME280;51976;47.332;9.404;2022-12-01T02:00:13;92943.25;;;18.26;40.20
65376;BME280;51976;47.332;9.404;2022-12-01T02:02:40;92942.44;;;18.25;40.42
65376;BME280;51976;47.332;9.404;2022-12-01T02:05:15;92942.13;;;18.27;40.31
65376;BME280;51976;47.332;9.404;2022-12-01T02:07:42;92938.59;;;18.26;40.46
65376;BME280;51976;47.332;9.404;2022-12-01T02:10:10;92935.88;;;18.26;40.04
65376;BME280;51976;47.332;9.404;2022-12-01T02:13:14;92937.00;;;18.25;40.14
65376;BME280;51976;47.332;9.404;2022-12-01T02:16:07;92938.91;;;18.25;40.47
65376;BME280;51976;47.332;9.404;2022-12-01T02:19:16;92922.22;;;18.26;40.17
65376;BME280;51976;47.332;9.404;2022-12-01T02:22:08;92929.59;;;18.26;40.35
65376;BME280;51976;47.332;9.404;2022-12-01T02:28:11;92919.03;;;18.24;40.11
65376;BME280;51976;47.332;9.404;2022-12-01T02:30:43;92924.47;;;18.24;40.29
65376;BME280;51976;47.332;9.404;2022-12-01T02:33:37;92916.28;;;18.24;40.02
65376;BME280;51976;47.332;9.404;2022-12-01T02:36:33;92919.03;;;18.24;40.33
65376;BME280;51976;47.332;9.404;2022-12-01T02:39:07;92911.16;;;18.23;40.26
65376;BME280;51976;47.332;9.404;2022-12-01T02:41:39;92915.00;;;18.22;40.24
65376;BME280;51976;47.332;9.404;2022-12-01T02:44:17;92915.16;;;18.25;40.33
65376;BME280;51976;47.332;9.404;2022-12-01T02:46:50;92915.97;;;18.26;40.02
65376;BME280;51976;47.332;9.404;2022-12-01T02:49:22;92905.69;;;18.23;40.18
65376;BME280;51976;47.332;9.404;2022-12-01T02:51:49;92915.50;;;18.24;40.13
65376;BME280;51976;47.332;9.404;2022-12-01T02:54:15;92910.34;;;18.22;40.32
65376;BME280;51976;47.332;9.404;2022-12-01T02:56:44;92910.69;;;18.21;40.38
65376;BME280;51976;47.332;9.404;2022-12-01T02:59:11;92918.69;;;18.26;40.16
65376;BME280;51976;47.332;9.404;2022-12-01T03:02:06;92919.03;;;18.24;40.18
65376;BME280;51976;47.332;9.404;2022-12-01T03:07:41;92913.41;;;18.21;39.98
65376;BME280;51976;47.332;9.404;2022-12-01T03:13:41;92906.84;;;18.22;40.10
65376;BME280;51976;47.332;9.404;2022-12-01T03:16:15;92916.28;;;18.24;40.26
65376;BME280;51976;47.332;9.404;2022-12-01T03:18:58;92918.88;;;18.21;40.36
65376;BME280;51976;47.332;9.404;2022-12-01T03:21:32;92921.28;;;18.22;40.23
65376;BME280;51976;47.332;9.404;2022-12-01T03:24:04;92913.09;;;18.22;40.27
65376;BME280;51976;47.332;9.404;2022-12-01T03:26:32;92910.69;;;18.21;40.13
65376;BME280;51976;47.332;9.404;2022-12-01T03:29:05;92916.63;;;18.23;40.34
65376;BME280;51976;47.332;9.404;2022-12-01T03:31:36;92911.16;;;18.23;40.20
65376;BME280;51976;47.332;9.404;2022-12-01T03:34:11;92914.22;;;18.21;40.08
65376;BME280;51976;47.332;9.404;2022-12-01T03:36:41;92912.28;;;18.22;40.19
65376;BME280;51976;47.332;9.404;2022-12-01T03:39:12;92910.03;;;18.24;40.21
65376;BME280;51976;47.332;9.404;2022-12-01T03:41:47;92916.28;;;18.24;40.11
65376;BME280;51976;47.332;9.404;2022-12-01T03:44:20;92918.22;;;18.24;40.19
65376;BME280;51976;47.332;9.404;2022-12-01T03:46:52;92919.66;;;18.21;40.32
65376;BME280;51976;47.332;9.404;2022-12-01T03:49:19;92919.34;;;18.23;40.33
65376;BME280;51976;47.332;9.404;2022-12-01T03:52:03;92911.16;;;18.23;40.26
65376;BME280;51976;47.332;9.404;2022-12-01T03:54:43;92915.00;;;18.22;40.21
65376;BME280;51976;47.332;9.404;2022-12-01T03:57:14;92914.22;;;18.21;40.20
65376;BME280;51976;47.332;9.404;2022-12-01T03:59:42;92916.63;;;18.23;40.31
65376;BME280;51976;47.332;9.404;2022-12-01T04:02:10;92916.94;;;18.21;40.31
65376;BME280;51976;47.332;9.404;2022-12-01T04:04:36;92917.41;;;18.23;40.27
65376;BME280;51976;47.332;9.404;2022-12-01T04:07:02;92922.06;;;18.23;40.05
65376;BME280;51976;47.332;9.404;2022-12-01T04:09:28;92920.16;;;18.23;39.96
65376;BME280;51976;47.332;9.404;2022-12-01T04:11:53;92922.06;;;18.23;40.06
65376;BME280;51976;47.332;9.404;2022-12-01T04:14:38;92919.03;;;18.24;40.02
65376;BME280;51976;47.332;9.404;2022-12-01T04:17:04;92922.88;;;18.23;39.76
65376;BME280;51976;47.332;9.404;2022-12-01T04:19:29;92926.41;;;18.24;40.07
65376;BME280;51976;47.332;9.404;2022-12-01T04:21:55;92920.00;;;18.20;40.20
65376;BME280;51976;47.332;9.404;2022-12-01T04:24:20;92916.63;;;18.23;40.21
65376;BME280;51976;47.332;9.404;2022-12-01T04:26:45;92920.00;;;18.20;40.23
65376;BME280;51976;47.332;9.404;2022-12-01T04:29:12;92923.19;;;18.22;40.04
65376;BME280;51976;47.332;9.404;2022-12-01T04:31:37;92926.72;;;18.22;40.17
65376;BME280;51976;47.332;9.404;2022-12-01T04:34:03;92926.72;;;18.22;40.04
65376;BME280;51976;47.332;9.404;2022-12-01T04:36:30;92921.28;;;18.22;40.28
65376;BME280;51976;47.332;9.404;2022-12-01T04:38:56;92927.06;;;18.21;40.04
65376;BME280;51976;47.332;9.404;2022-12-01T04:41:22;92920.47;;;18.22;40.12
65376;BME280;51976;47.332;9.404;2022-12-01T04:43:47;92929.31;;;18.19;40.10
65376;BME280;51976;47.332;9.404;2022-12-01T04:46:13;92931.38;;;18.22;40.00
65376;BME280;51976;47.332;9.404;2022-12-01T04:48:39;92927.06;;;18.21;40.30
65376;BME280;51976;47.332;9.404;2022-12-01T04:51:07;92926.72;;;18.22;40.02
65376;BME280;51976;47.332;9.404;2022-12-01T04:53:33;92931.38;;;18.22;39.94
65376;BME280;51976;47.332;9.404;2022-12-01T04:55:59;92927.06;;;18.21;40.03
65376;BME280;51976;47.332;9.404;2022-12-01T04:58:26;92928.19;;;18.20;39.84
65376;BME280;51976;47.332;9.404;2022-12-01T05:00:51;92930.59;;;18.21;40.23
65376;BME280;51976;47.332;9.404;2022-12-01T05:03:16;92925.44;;;18.20;39.91
65376;BME280;51976;47.332;9.404;2022-12-01T05:05:42;92929.31;;;18.19;40.21
65376;BME280;51976;47.332;9.404;2022-12-01T05:08:07;92928.97;;;18.20;39.96
65376;BME280;51976;47.332;9.404;2022-12-01T05:10:36;92935.09;;;18.17;39.92
65376;BME280;51976;47.332;9.404;2022-12-01T05:13:05;92930.75;;;18.16;39.76
65376;BME280;51976;47.332;9.404;2022-12-01T05:15:31;92931.56;;;18.17;40.15
65376;BME280;51976;47.332;9.404;2022-12-01T05:17:56;92935.88;;;18.18;40.00
65376;BME280;51976;47.332;9.404;2022-12-01T05:20:25;92935.88;;;18.18;39.92
65376;BME280;51976;47.332;9.404;2022-12-01T05:23:10;92931.09;;;18.15;39.99
65376;BME280;51976;47.332;9.404;2022-12-01T05:25:35;92934.75;;;18.19;40.04
65376;BME280;51976;47.332;9.404;2022-12-01T05:28:02;92937.00;;;18.17;40.17
65376;BME280;51976;47.332;9.404;2022-12-01T05:30:28;92934.75;;;18.19;39.99
65376;BME280;51976;47.332;9.404;2022-12-01T05:32:53;92931.09;;;18.15;40.13
65376;BME280;51976;47.332;9.404;2022-12-01T05:35:19;92935.88;;;18.18;39.97
65376;BME280;51976;47.332;9.404;2022-12-01T05:37:44;92934.75;;;18.19;39.82
65376;BME280;51976;47.332;9.404;2022-12-01T05:40:10;92938.63;;;18.18;39.83
65376;BME280;51976;47.332;9.404;2022-12-01T05:42:35;92935.88;;;18.18;39.92
65376;BME280;51976;47.332;9.404;2022-12-01T05:45:01;92933.97;;;18.18;39.82
65376;BME280;51976;47.332;9.404;2022-12-01T05:47:26;92931.22;;;18.18;40.28
65376;BME280;51976;47.332;9.404;2022-12-01T05:49:51;92948.09;;;18.20;40.06
65376;BME280;51976;47.332;9.404;2022-12-01T05:52:17;92932.03;;;18.19;40.14
65376;BME280;51976;47.332;9.404;2022-12-01T05:54:42;92939.09;;;18.20;39.79
65376;BME280;51976;47.332;9.404;2022-12-01T05:57:08;92937.97;;;18.21;39.94
65376;BME280;51976;47.332;9.404;2022-12-01T05:59:33;92936.03;;;18.21;39.97
65376;BME280;51976;47.332;9.404;2022-12-01T06:01:58;92940.69;;;18.21;40.13
65376;BME280;51976;47.332;9.404;2022-12-01T06:04:24;92942.31;;;18.22;39.95
65376;BME280;51976;47.332;9.404;2022-12-01T06:06:49;92939.91;;;18.20;39.88
65376;BME280;51976;47.332;9.404;2022-12-01T06:09:15;92941.66;;;18.25;39.83
65376;BME280;51976;47.332;9.404;2022-12-01T06:11:40;92946.16;;;18.21;39.87
65376;BME280;51976;47.332;9.404;2022-12-01T06:14:06;92946.97;;;18.21;40.09
65376;BME280;51976;47.332;9.404;2022-12-01T06:16:31;92945.34;;;18.20;40.03
65376;BME280;51976;47.332;9.404;2022-12-01T06:18:57;92944.88;;;18.18;40.04
65376;BME280;51976;47.332;9.404;2022-12-01T06:21:22;92949.22;;;18.19;39.95
65376;BME280;51976;47.332;9.404;2022-12-01T06:23:48;92951.78;;;18.16;40.19
65376;BME280;51976;47.332;9.404;2022-12-01T06:26:13;92954.50;;;18.16;39.94
65376;BME280;51976;47.332;9.404;2022-12-01T06:28:38;92953.22;;;18.13;40.15
65376;BME280;51976;47.332;9.404;2022-12-01T06:31:04;92948.44;;;18.10;40.14
65376;BME280;51976;47.332;9.404;2022-12-01T06:33:30;92953.72;;;18.15;40.21
65376;BME280;51976;47.332;9.404;2022-12-01T06:35:58;92961.09;;;18.15;39.98
65376;BME280;51976;47.332;9.404;2022-12-01T06:38:23;92958.38;;;18.15;39.98
65376;BME280;51976;47.332;9.404;2022-12-01T06:40:49;92966.72;;;18.18;39.94
65376;BME280;51976;47.332;9.404;2022-12-01T06:43:14;92955.81;;;18.10;40.24
65376;BME280;51976;47.332;9.404;2022-12-01T06:45:39;92962.38;;;18.17;40.01
65376;BME280;51976;47.332;9.404;2022-12-01T06:48:05;92971.34;;;18.18;39.99
65376;BME280;51976;47.332;9.404;2022-12-01T06:50:31;92967.50;;;18.19;40.07
65376;BME280;51976;47.332;9.404;2022-12-01T06:52:56;92970.88;;;18.16;40.03
65376;BME280;51976;47.332;9.404;2022-12-01T06:55:21;92969.75;;;18.17;39.77
65376;BME280;51976;47.332;9.404;2022-12-01T06:57:47;92971.03;;;18.19;39.82
65376;BME280;51976;47.332;9.404;2022-12-01T07:00:13;92976.00;;;18.17;40.17
65376;BME280;51976;47.332;9.404;2022-12-01T07:02:38;92969.75;;;18.17;40.03
65376;BME280;51976;47.332;9.404;2022-12-01T07:05:04;92977.47;;;18.15;39.98
65376;BME280;51976;47.332;9.404;2022-12-01T07:07:30;92977.94;;;18.17;40.13
65376;BME280;51976;47.332;9.404;2022-12-01T07:09:55;92978.75;;;18.17;39.92
65376;BME280;51976;47.332;9.404;2022-12-01T07:12:21;92977.94;;;18.17;39.72
65376;BME280;51976;47.332;9.404;2022-12-01T07:14:46;92975.22;;;18.17;39.72
65376;BME280;51976;47.332;9.404;2022-12-01T07:17:12;92981.16;;;18.19;39.82
65376;BME280;51976;47.332;9.404;2022-12-01T07:19:37;92984.03;;;18.14;40.04
65376;BME280;51976;47.332;9.404;2022-12-01T07:22:03;92980.66;;;18.17;40.04
65376;BME280;51976;47.332;9.404;2022-12-01T07:24:29;92985.00;;;18.18;40.17
65376;BME280;51976;47.332;9.404;2022-12-01T07:26:55;92981.94;;;18.19;40.10
65376;BME280;51976;47.332;9.404;2022-12-01T07:29:20;92978.75;;;18.17;40.04
65376;BME280;51976;47.332;9.404;2022-12-01T07:31:45;92990.47;;;18.18;39.96
65376;BME280;51976;47.332;9.404;2022-12-01T07:34:11;92992.88;;;18.19;39.95
65376;BME280;51976;47.332;9.404;2022-12-01T07:36:37;92989.81;;;18.21;40.11
65376;BME280;51976;47.332;9.404;2022-12-01T07:39:04;92994.78;;;18.19;40.38
65376;BME280;51976;47.332;9.404;2022-12-01T07:41:30;92998.31;;;18.19;40.17
65376;BME280;51976;47.332;9.404;2022-12-01T07:43:56;92997.84;;;18.17;40.63
65376;BME280;51976;47.332;9.404;2022-12-01T07:46:24;92996.41;;;18.20;40.66
65376;BME280;51976;47.332;9.404;2022-12-01T07:48:51;92995.28;;;18.21;40.66
65376;BME280;51976;47.332;9.404;2022-12-01T07:51:17;92998.47;;;18.23;40.75
65376;BME280;51976;47.332;9.404;2022-12-01T07:53:44;92996.88;;;18.22;40.71
65376;BME280;51976;47.332;9.404;2022-12-01T07:56:10;92998.47;;;18.23;40.67
65376;BME280;51976;47.332;9.404;2022-12-01T07:58:36;92998.47;;;18.23;41.02
65376;BME280;51976;47.332;9.404;2022-12-01T08:01:09;93000.06;;;18.24;41.18
65376;BME280;51976;47.332;9.404;2022-12-01T08:03:36;93002.16;;;18.27;40.92
65376;BME280;51976;47.332;9.404;2022-12-01T08:06:02;93006.00;;;18.26;41.16
65376;BME280;51976;47.332;9.404;2022-12-01T08:08:29;93000.56;;;18.26;41.28
65376;BME280;51976;47.332;9.404;2022-12-01T08:10:59;93010.34;;;18.27;41.41
65376;BME280;51976;47.332;9.404;2022-12-01T08:13:25;93006.50;;;18.28;41.36
65376;BME280;51976;47.332;9.404;2022-12-01T08:15:51;93003.44;;;18.30;41.65
65376;BME280;51976;47.332;9.404;2022-12-01T08:18:16;93004.25;;;18.30;41.56
65376;BME280;51976;47.332;9.404;2022-12-01T08:20:42;93008.91;;;18.30;41.69
65376;BME280;51976;47.332;9.404;2022-12-01T08:23:07;93005.50;;;18.33;41.76
65376;BME280;51976;47.332;9.404;2022-12-01T08:25:33;93012.09;;;18.32;41.84
65376;BME280;51976;47.332;9.404;2022-12-01T08:27:59;93007.44;;;18.32;42.00
65376;BME280;51976;47.332;9.404;2022-12-01T08:30:25;93009.03;;;18.33;41.68
65376;BME280;51976;47.332;9.404;2022-12-01T08:32:54;93011.44;;;18.35;42.16
65376;BME280;51976;47.332;9.404;2022-12-01T08:35:20;93009.50;;;18.35;42.08
65376;BME280;51976;47.332;9.404;2022-12-01T08:37:45;93003.72;;;18.37;42.04
65376;BME280;51976;47.332;9.404;2022-12-01T08:40:11;93001.78;;;18.37;42.12
65376;BME280;51976;47.332;9.404;2022-12-01T08:42:37;93005.63;;;18.36;42.46
65376;BME280;51976;47.332;9.404;2022-12-01T08:45:03;93006.13;;;18.38;42.31
65376;BME280;51976;47.332;9.404;2022-12-01T08:47:29;92998.72;;;18.39;42.58
65376;BME280;51976;47.332;9.404;2022-12-01T08:49:54;93006.59;;;18.40;42.56
65376;BME280;51976;47.332;9.404;2022-12-01T08:52:20;92999.53;;;18.39;42.58
65376;BME280;51976;47.332;9.404;2022-12-01T08:54:45;93003.88;;;18.40;42.53
65376;BME280;51976;47.332;9.404;2022-12-01T08:57:11;93010.13;;;18.41;42.73
65376;BME280;51976;47.332;9.404;2022-12-01T08:59:36;92994.06;;;18.39;42.97
65376;BME280;51976;47.332;9.404;2022-12-01T09:02:02;93007.56;;;18.36;42.80
65376;BME280;51976;47.332;9.404;2022-12-01T09:04:27;93006.78;;;18.35;43.05
65376;BME280;51976;47.332;9.404;2022-12-01T09:06:54;93007.56;;;18.36;43.10
65376;BME280;51976;47.332;9.404;2022-12-01T09:09:23;93004.84;;;18.36;42.83
65376;BME280;51976;47.332;9.404;2022-12-01T09:11:49;93009.16;;;18.37;43.00
65376;BME280;51976;47.332;9.404;2022-12-01T09:14:17;93007.25;;;18.37;42.89
65376;BME280;51976;47.332;9.404;2022-12-01T09:16:44;93011.25;;;18.40;42.90
65376;BME280;51976;47.332;9.404;2022-12-01T09:19:11;93008.53;;;18.40;42.88
65376;BME280;51976;47.332;9.404;2022-12-01T09:21:37;93011.56;;;18.38;42.99
65376;BME280;51976;47.332;9.404;2022-12-01T09:24:04;93010.44;;;18.39;42.90
65376;BME280;51976;47.332;9.404;2022-12-01T09:26:30;93011.56;;;18.38;42.45
65376;BME280;51976;47.332;9.404;2022-12-01T09:28:59;93013.19;;;18.39;42.64
65376;BME280;51976;47.332;9.404;2022-12-01T09:31:25;93010.44;;;18.39;42.47
65376;BME280;51976;47.332;9.404;2022-12-01T09:34:01;93014.78;;;18.40;42.88
65376;BME280;51976;47.332;9.404;2022-12-01T09:36:30;93013.97;;;18.40;42.46
65376;BME280;51976;47.332;9.404;2022-12-01T09:38:56;93007.41;;;18.41;42.35
65376;BME280;51976;47.332;9.404;2022-12-01T09:41:36;93004.66;;;18.41;42.68
65376;BME280;51976;47.332;9.404;2022-12-01T09:44:17;93008.53;;;18.40;42.63
65376;BME280;51976;47.332;9.404;2022-12-01T09:46:51;93013.97;;;18.40;42.45
65376;BME280;51976;47.332;9.404;2022-12-01T09:49:28;93006.91;;;18.39;42.62
65376;BME280;51976;47.332;9.404;2022-12-01T09:51:59;93013.66;;;18.41;42.51
65376;BME280;51976;47.332;9.404;2022-12-01T09:54:27;93000.34;;;18.40;42.50
65376;BME280;51976;47.332;9.404;2022-12-01T09:56:53;93004.66;;;18.41;42.12
65376;BME280;51976;47.332;9.404;2022-12-01T09:59:24;92994.06;;;18.39;42.16
65376;BME280;51976;47.332;9.404;2022-12-01T10:01:58;93005.31;;;18.38;42.24
65376;BME280;51976;47.332;9.404;2022-12-01T10:04:33;92997.94;;;18.38;42.21
65376;BME280;51976;47.332;9.404;2022-12-01T10:09:57;92987.00;;;18.38;42.37
65376;BME280;51976;47.332;9.404;2022-12-01T10:12:24;92987.81;;;18.39;42.33
65376;BME280;51976;47.332;9.404;2022-12-01T10:15:12;92992.16;;;18.40;42.28
65376;BME280;51976;47.332;9.404;2022-12-01T10:17:50;92988.63;;;18.39;42.13
65376;BME280;51976;47.332;9.404;2022-12-01T10:20:29;92983.16;;;18.39;42.30
65376;BME280;51976;47.332;9.404;2022-12-01T10:23:30;92986.22;;;18.38;42.23
65376;BME280;51976;47.332;9.404;2022-12-01T10:26:14;92984.28;;;18.38;42.23
65376;BME280;51976;47.332;9.404;2022-12-01T10:32:00;92985.41;;;18.37;41.98
65376;BME280;51976;47.332;9.404;2022-12-01T10:34:32;92982.69;;;18.37;42.26
65376;BME280;51976;47.332;9.404;2022-12-01T10:36:59;92978.03;;;18.38;41.96
65376;BME280;51976;47.332;9.404;2022-12-01T10:39:31;92972.56;;;18.38;42.03
65376;BME280;51976;47.332;9.404;2022-12-01T10:42:12;92974.50;;;18.37;42.05
65376;BME280;51976;47.332;9.404;2022-12-01T10:44:38;92972.88;;;18.36;42.00
65376;BME280;51976;47.332;9.404;2022-12-01T10:47:19;92967.09;;;18.38;42.04
65376;BME280;51976;47.332;9.404;2022-12-01T10:49:45;92973.38;;;18.38;42.05
65376;BME280;51976;47.332;9.404;2022-12-01T10:52:33;92965.19;;;18.38;41.87
65376;BME280;51976;47.332;9.404;2022-12-01T10:54:59;92971.13;;;18.40;42.22
65376;BME280;51976;47.332;9.404;2022-12-01T10:57:26;92974.31;;;18.42;41.79
65376;BME280;51976;47.332;9.404;2022-12-01T11:00:03;92969.66;;;18.43;41.87
65376;BME280;51976;47.332;9.404;2022-12-01T11:02:30;92963.41;;;18.42;41.70
65376;BME280;51976;47.332;9.404;2022-12-01T11:04:59;92966.47;;;18.41;41.89
65376;BME280;51976;47.332;9.404;2022-12-01T11:07:31;92969.50;;;18.39;41.93
65376;BME280;51976;47.332;9.404;2022-12-01T11:10:15;92973.38;;;18.38;41.97
65376;BME280;51976;47.332;9.404;2022-12-01T11:12:42;92964.38;;;18.38;42.16
65376;BME280;51976;47.332;9.404;2022-12-01T11:15:21;92964.53;;;18.41;41.96
65376;BME280;51976;47.332;9.404;2022-12-01T11:18:02;92959.72;;;18.38;42.05
65376;BME280;51976;47.332;9.404;2022-12-01T11:20:38;92960.38;;;18.35;41.86
65376;BME280;51976;47.332;9.404;2022-12-01T11:23:22;92958.13;;;18.37;41.77
65376;BME280;51976;47.332;9.404;2022-12-01T11:26:12;92956.34;;;18.41;41.66
65376;BME280;51976;47.332;9.404;2022-12-01T11:28:58;92947.69;;;18.39;41.58
65376;BME280;51976;47.332;9.404;2022-12-01T11:31:40;92953.78;;;18.36;41.58
65376;BME280;51976;47.332;9.404;2022-12-01T11:34:21;92951.06;;;18.36;41.98
65376;BME280;51976;47.332;9.404;2022-12-01T11:36:51;92959.25;;;18.36;41.92
65376;BME280;51976;47.332;9.404;2022-12-01T11:39:33;92954.59;;;18.37;41.60
65376;BME280;51976;47.332;9.404;2022-12-01T11:42:18;92949.94;;;18.37;41.84
65376;BME280;51976;47.332;9.404;2022-12-01T11:44:49;92952.19;;;18.35;41.95
65376;BME280;51976;47.332;9.404;2022-12-01T11:47:18;92958.44;;;18.36;41.94
65376;BME280;51976;47.332;9.404;2022-12-01T11:49:50;92957.66;;;18.35;41.78
65376;BME280;51976;47.332;9.404;2022-12-01T11:52:23;92956.84;;;18.35;41.67
65376;BME280;51976;47.332;9.404;2022-12-01T11:57:55;92955.72;;;18.36;41.69
65376;BME280;51976;47.332;9.404;2022-12-01T12:00:25;92953.00;;;18.36;41.36
65376;BME280;51976;47.332;9.404;2022-12-01T12:05:55;92948.66;;;18.35;41.76
65376;BME280;51976;47.332;9.404;2022-12-01T12:08:55;92948.97;;;18.33;41.54
65376;BME280;51976;47.332;9.404;2022-12-01T12:11:22;92947.53;;;18.36;41.80
65376;BME280;51976;47.332;9.404;2022-12-01T12:14:21;92946.72;;;18.35;41.53
65376;BME280;51976;47.332;9.404;2022-12-01T12:17:07;92949.94;;;18.37;41.51
65376;BME280;51976;47.332;9.404;2022-12-01T12:19:49;92944.78;;;18.36;41.41
65376;BME280;51976;47.332;9.404;2022-12-01T12:22:44;92944.00;;;18.35;41.38
65376;BME280;51976;47.332;9.404;2022-12-01T12:25:24;92951.72;;;18.33;41.52
65376;BME280;51976;47.332;9.404;2022-12-01T12:28:16;92940.34;;;18.31;41.44
65376;BME280;51976;47.332;9.404;2022-12-01T12:31:34;92940.47;;;18.35;41.52
65376;BME280;51976;47.332;9.404;2022-12-01T12:34:34;92945.13;;;18.34;41.52
65376;BME280;51976;47.332;9.404;2022-12-01T12:37:08;92951.38;;;18.35;41.53
65376;BME280;51976;47.332;9.404;2022-12-01T12:40:05;92946.72;;;18.35;41.36
65376;BME280;51976;47.332;9.404;2022-12-01T12:43:08;92940.47;;;18.35;41.30
65376;BME280;51976;47.332;9.404;2022-12-01T12:46:04;92912.00;;;18.15;41.49
65376;BME280;51976;47.332;9.404;2022-12-01T12:49:01;92945.13;;;18.34;41.35
65376;BME280;51976;47.332;9.404;2022-12-01T12:51:37;92941.16;;;18.32;41.73
65376;BME280;51976;47.332;9.404;2022-12-01T12:54:16;92944.69;;;18.32;41.62
65376;BME280;51976;47.332;9.404;2022-12-01T12:56:46;92937.25;;;18.33;41.95
65376;BME280;51976;47.332;9.404;2022-12-01T12:59:20;92947.84;;;18.34;41.65
65376;BME280;51976;47.332;9.404;2022-12-01T13:01:58;92926.06;;;18.25;41.92
65376;BME280;51976;47.332;9.404;2022-12-01T13:04:39;92939.66;;;18.34;42.08
65376;BME280;51976;47.332;9.404;2022-12-01T13:07:27;92939.81;;;18.38;42.03
65376;BME280;51976;47.332;9.404;2022-12-01T13:09:59;92943.81;;;18.40;41.91
65376;BME280;51976;47.332;9.404;2022-12-01T13:12:33;92946.22;;;18.42;42.25
65376;BME280;51976;47.332;9.404;2022-12-01T13:15:15;92945.25;;;18.46;41.68
65376;BME280;51976;47.332;9.404;2022-12-01T13:17:52;92945.72;;;18.48;41.33
65376;BME280;51976;47.332;9.404;2022-12-01T13:20:22;92940.25;;;18.48;41.29
65376;BME280;51976;47.332;9.404;2022-12-01T13:22:50;92939.94;;;18.50;41.40
65376;BME280;51976;47.332;9.404;2022-12-01T13:25:24;92943.94;;;18.52;41.11
65376;BME280;51976;47.332;9.404;2022-12-01T13:27:51;92941.69;;;18.54;41.43
65376;BME280;51976;47.332;9.404;2022-12-01T13:30:24;92941.03;;;18.57;41.28
65376;BME280;51976;47.332;9.404;2022-12-01T13:33:00;92947.00;;;18.59;41.56
65376;BME280;51976;47.332;9.404;2022-12-01T13:35:36;92943.91;;;18.61;41.48
65376;BME280;51976;47.332;9.404;2022-12-01T13:38:22;92938.59;;;18.65;41.44
65376;BME280;51976;47.332;9.404;2022-12-01T13:41:10;92942.91;;;18.66;41.58